createdAt,value
2019-04-27T00:00:28.500Z,93.66
2019-04-27T00:01:24.663Z,94.08
2019-04-27T00:02:26.617Z,93.98
2019-04-27T00:03:26.082Z,94.70
2019-04-27T00:04:25.399Z,94.49
2019-04-27T00:05:32.056Z,94.49
2019-04-27T00:06:27.608Z,94.49
2019-04-27T00:07:25.845Z,94.08
2019-04-27T00:08:28.525Z,94.13
2019-04-27T00:09:28.536Z,93.21
2019-04-27T00:10:28.606Z,92.69
2019-04-27T00:11:27.492Z,92.02
2019-04-27T00:12:26.659Z,93.11
2019-04-27T00:13:26.852Z,91.72
2019-04-27T00:14:27.030Z,91.06
2019-04-27T00:15:31.194Z,90.66
2019-04-27T00:16:29.337Z,89.94
2019-04-27T00:17:43.487Z,88.92
2019-04-27T00:18:28.628Z,87.96
2019-04-27T00:19:31.837Z,87.04
2019-04-27T00:20:28.966Z,86.52
2019-04-27T00:21:28.114Z,86.17
2019-04-27T00:22:28.292Z,86.07
2019-04-27T00:23:28.453Z,86.48
2019-04-27T00:24:28.607Z,86.72
2019-04-27T00:25:28.796Z,86.99
2019-04-27T00:26:28.945Z,86.68
2019-04-27T00:27:29.110Z,86.62
2019-04-27T00:28:29.271Z,86.62
2019-04-27T00:29:29.446Z,87.04
2019-04-27T00:30:29.610Z,86.93
2019-04-27T00:31:30.778Z,86.62
2019-04-27T00:32:29.947Z,87.13
2019-04-27T00:33:30.099Z,86.72
2019-04-27T00:34:30.249Z,86.83
2019-04-27T00:35:30.418Z,86.93
2019-04-27T00:36:30.569Z,86.72
2019-04-27T00:37:30.716Z,86.42
2019-04-27T00:38:33.292Z,86.38
2019-04-27T00:39:31.011Z,86.00
2019-04-27T00:40:31.180Z,86.27
2019-04-27T00:41:31.323Z,84.84
2019-04-27T00:42:31.463Z,84.63
2019-04-27T00:43:32.831Z,85.25
2019-04-27T00:44:31.862Z,86.07
2019-04-27T00:45:33.515Z,86.17
2019-04-27T00:46:33.081Z,86.27
2019-04-27T00:47:35.019Z,86.00
2019-04-27T00:48:33.340Z,86.00
2019-04-27T00:49:33.675Z,86.11
2019-04-27T00:50:33.812Z,86.83
2019-04-27T00:51:33.336Z,86.62
2019-04-27T00:52:34.856Z,86.32
2019-04-27T00:53:35.022Z,86.32
2019-04-27T00:54:33.986Z,85.90
2019-04-27T00:55:34.703Z,85.90
2019-04-27T00:56:34.009Z,86.15
2019-04-27T00:57:36.026Z,87.59
2019-04-27T00:58:34.248Z,88.41
2019-04-27T00:59:34.422Z,88.31
2019-04-27T01:00:35.532Z,89.38
2019-04-27T01:01:34.814Z,89.73
2019-04-27T01:02:35.432Z,88.70
2019-04-27T01:03:36.213Z,89.42
2019-04-27T01:04:35.356Z,89.83
2019-04-27T01:05:35.519Z,90.28
2019-04-27T01:06:35.658Z,90.69
2019-04-27T01:07:35.839Z,91.42
2019-04-27T01:08:36.044Z,92.14
2019-04-27T01:09:36.189Z,92.08
2019-04-27T01:10:36.359Z,92.43
2019-04-27T01:11:36.526Z,92.53
2019-04-27T01:12:36.702Z,92.84
2019-04-27T01:13:37.523Z,93.46
2019-04-27T01:14:37.004Z,93.46
2019-04-27T01:15:37.165Z,93.56
2019-04-27T01:16:37.301Z,93.11
2019-04-27T01:17:39.017Z,90.03
2019-04-27T01:18:38.748Z,88.59
2019-04-27T01:19:39.244Z,88.04
2019-04-27T01:20:38.778Z,87.07
2019-04-27T01:21:39.655Z,86.87
2019-04-27T01:22:39.480Z,85.53
2019-04-27T01:23:38.593Z,84.47
2019-04-27T01:24:39.132Z,84.36
2019-04-27T01:25:40.528Z,84.22
2019-04-27T01:26:39.180Z,83.54
2019-04-27T01:27:39.437Z,84.16
2019-04-27T01:28:40.488Z,84.05
2019-04-27T01:29:41.437Z,84.88
2019-04-27T01:30:39.756Z,85.08
2019-04-27T01:31:39.903Z,85.53
2019-04-27T01:32:41.031Z,85.39
2019-04-27T01:33:40.186Z,85.02
2019-04-27T01:34:40.346Z,85.43
2019-04-27T01:35:40.491Z,84.91
2019-04-27T01:36:40.642Z,86.08
2019-04-27T01:37:40.815Z,86.08
2019-04-27T01:38:41.168Z,86.85
2019-04-27T01:39:42.222Z,87.15
2019-04-27T01:40:42.027Z,87.60
2019-04-27T01:41:41.529Z,88.53
2019-04-27T01:42:42.538Z,89.09
2019-04-27T01:43:41.919Z,90.01
2019-04-27T01:44:42.108Z,90.37
2019-04-27T01:45:43.033Z,90.10
2019-04-27T01:46:42.396Z,90.51
2019-04-27T01:47:42.550Z,90.82
2019-04-27T01:48:42.679Z,91.38
2019-04-27T01:49:42.945Z,92.10
2019-04-27T01:50:43.099Z,92.82
2019-04-27T01:51:43.242Z,93.34
2019-04-27T01:52:43.416Z,93.44
2019-04-27T01:53:44.534Z,92.93
2019-04-27T01:54:43.703Z,92.78
2019-04-27T01:55:43.866Z,92.99
2019-04-27T01:56:44.022Z,92.47
2019-04-27T01:57:45.034Z,91.75
2019-04-27T01:58:44.277Z,91.58
2019-04-27T01:59:44.464Z,92.10
2019-04-27T02:00:44.618Z,91.89
2019-04-27T02:01:44.735Z,93.24
2019-04-27T02:02:45.537Z,93.54
2019-04-27T02:03:45.034Z,93.44
2019-04-27T02:04:45.178Z,93.54
2019-04-27T02:05:45.343Z,93.09
2019-04-27T02:06:45.508Z,92.47
2019-04-27T02:07:46.544Z,91.96
2019-04-27T02:08:45.782Z,91.85
2019-04-27T02:09:45.940Z,91.24
2019-04-27T02:10:46.123Z,91.79
2019-04-27T02:11:46.299Z,92.41
2019-04-27T02:12:46.488Z,93.13
2019-04-27T02:13:46.648Z,93.38
2019-04-27T02:14:46.813Z,93.85
2019-04-27T02:15:48.630Z,93.54
2019-04-27T02:16:47.125Z,92.66
2019-04-27T02:17:50.677Z,92.97
2019-04-27T02:18:48.864Z,93.69
2019-04-27T02:19:49.375Z,93.73
2019-04-27T02:20:49.292Z,94.25
2019-04-27T02:21:51.304Z,93.94
2019-04-27T02:22:50.775Z,94.46
2019-04-27T02:23:49.707Z,94.67
2019-04-27T02:24:49.265Z,95.49
2019-04-27T02:25:49.921Z,95.28
2019-04-27T02:26:49.730Z,95.39
2019-04-27T02:27:50.194Z,95.22
2019-04-27T02:28:49.599Z,95.32
2019-04-27T02:29:50.449Z,95.74
2019-04-27T02:30:49.912Z,96.47
2019-04-27T02:31:50.980Z,96.56
2019-04-27T02:32:50.111Z,96.56
2019-04-27T02:33:50.252Z,96.31
2019-04-27T02:34:50.601Z,96.56
2019-04-27T02:35:51.575Z,95.68
2019-04-27T02:36:51.046Z,96.41
2019-04-27T02:37:50.922Z,96.51
2019-04-27T02:38:51.057Z,96.61
2019-04-27T02:39:51.199Z,96.24
2019-04-27T02:40:51.371Z,97.13
2019-04-27T02:41:52.598Z,96.51
2019-04-27T02:42:54.621Z,95.48
2019-04-27T02:43:52.942Z,96.51
2019-04-27T02:44:52.172Z,96.51
2019-04-27T02:45:52.311Z,96.61
2019-04-27T02:46:52.485Z,96.14
2019-04-27T02:47:53.534Z,96.03
2019-04-27T02:48:59.843Z,96.24
2019-04-27T02:49:54.894Z,96.45
2019-04-27T02:50:53.114Z,96.55
2019-04-27T02:51:53.265Z,97.13
2019-04-27T02:52:53.421Z,95.95
2019-04-27T02:53:53.569Z,94.71
2019-04-27T02:54:54.054Z,94.29
2019-04-27T02:55:53.933Z,95.43
2019-04-27T02:56:54.076Z,95.43
2019-04-27T02:57:54.210Z,94.67
2019-04-27T02:58:54.479Z,93.88
2019-04-27T02:59:54.600Z,94.40
2019-04-27T03:00:54.845Z,94.34
2019-04-27T03:01:54.970Z,95.53
2019-04-27T03:02:55.159Z,95.43
2019-04-27T03:03:55.322Z,95.27
2019-04-27T03:04:56.051Z,95.37
2019-04-27T03:05:56.551Z,95.89
2019-04-27T03:06:55.778Z,95.78
2019-04-27T03:07:55.920Z,95.68
2019-04-27T03:08:56.100Z,95.17
2019-04-27T03:09:56.232Z,95.37
2019-04-27T03:10:56.363Z,95.48
2019-04-27T03:11:56.514Z,96.30
2019-04-27T03:12:56.691Z,95.73
2019-04-27T03:13:59.665Z,96.03
2019-04-27T03:14:57.021Z,95.83
2019-04-27T03:16:00.244Z,95.73
2019-04-27T03:17:00.006Z,96.55
2019-04-27T03:17:59.700Z,97.17
2019-04-27T03:19:13.375Z,97.81
2019-04-27T03:19:59.990Z,96.98
2019-04-27T03:21:00.334Z,96.41
2019-04-27T03:21:59.541Z,95.68
2019-04-27T03:23:00.079Z,95.48
2019-04-27T03:24:00.260Z,96.45
2019-04-27T03:25:00.250Z,95.78
2019-04-27T03:26:00.420Z,96.34
2019-04-27T03:27:00.695Z,96.34
2019-04-27T03:28:02.587Z,97.49
2019-04-27T03:29:00.000Z,97.38
2019-04-27T03:30:00.729Z,97.59
2019-04-27T03:31:02.495Z,98.21
2019-04-27T03:32:02.130Z,97.44
2019-04-27T03:33:02.888Z,97.17
2019-04-27T03:34:05.336Z,96.92
2019-04-27T03:35:03.081Z,97.17
2019-04-27T03:36:02.857Z,97.13
2019-04-27T03:37:02.050Z,96.51
2019-04-27T03:38:01.031Z,97.02
2019-04-27T03:39:01.563Z,96.09
2019-04-27T03:40:01.326Z,97.49
2019-04-27T03:41:01.576Z,97.23
2019-04-27T03:42:01.704Z,97.23
2019-04-27T03:43:01.835Z,96.92
2019-04-27T03:44:01.975Z,96.61
2019-04-27T03:45:02.129Z,97.64
2019-04-27T03:46:02.561Z,98.06
2019-04-27T03:47:02.440Z,98.06
2019-04-27T03:48:02.596Z,97.49
2019-04-27T03:49:03.546Z,97.49
2019-04-27T03:50:02.953Z,96.72
2019-04-27T03:51:03.155Z,97.13
2019-04-27T03:52:03.325Z,97.28
2019-04-27T03:53:03.473Z,97.17
2019-04-27T03:54:04.087Z,97.17
2019-04-27T03:55:03.866Z,97.07
2019-04-27T03:56:04.060Z,97.38
2019-04-27T03:57:04.270Z,97.17
2019-04-27T03:58:04.462Z,97.59
2019-04-27T03:59:04.657Z,98.27
2019-04-27T04:00:04.842Z,97.91
2019-04-27T04:01:05.050Z,97.71
2019-04-27T04:02:06.055Z,97.19
2019-04-27T04:03:06.044Z,96.56
2019-04-27T04:04:06.065Z,96.88
2019-04-27T04:05:05.678Z,96.67
2019-04-27T04:06:05.883Z,97.19
2019-04-27T04:07:06.032Z,96.56
2019-04-27T04:08:06.152Z,96.94
2019-04-27T04:09:06.284Z,96.17
2019-04-27T04:10:06.409Z,95.50
2019-04-27T04:11:06.565Z,94.99
2019-04-27T04:12:09.448Z,94.17
2019-04-27T04:13:06.905Z,93.18
2019-04-27T04:14:07.039Z,93.96
2019-04-27T04:15:09.806Z,94.10
2019-04-27T04:16:08.001Z,93.69
2019-04-27T04:17:09.842Z,94.00
2019-04-27T04:18:09.830Z,94.02
2019-04-27T04:19:10.017Z,93.71
2019-04-27T04:20:10.145Z,92.02
2019-04-27T04:21:09.628Z,91.36
2019-04-27T04:22:10.241Z,91.25
2019-04-27T04:23:10.595Z,91.15
2019-04-27T04:24:11.883Z,91.25
2019-04-27T04:25:10.779Z,91.46
2019-04-27T04:26:10.205Z,90.69
2019-04-27T04:27:10.084Z,90.90
2019-04-27T04:28:09.600Z,90.18
2019-04-27T04:29:10.567Z,90.24
2019-04-27T04:30:12.286Z,88.90
2019-04-27T04:31:13.844Z,87.49
2019-04-27T04:32:12.050Z,85.90
2019-04-27T04:33:11.482Z,84.32
2019-04-27T04:34:12.090Z,84.22
2019-04-27T04:35:11.745Z,84.32
2019-04-27T04:36:10.871Z,84.01
2019-04-27T04:37:11.035Z,84.28
2019-04-27T04:38:11.231Z,83.87
2019-04-27T04:39:12.473Z,83.67
2019-04-27T04:40:12.535Z,82.64
2019-04-27T04:41:11.783Z,83.15
2019-04-27T04:42:11.944Z,83.12
2019-04-27T04:43:12.103Z,82.60
2019-04-27T04:44:12.641Z,81.54
2019-04-27T04:45:13.481Z,81.64
2019-04-27T04:46:13.336Z,81.81
2019-04-27T04:47:13.848Z,81.46
2019-04-27T04:48:12.988Z,79.72
2019-04-27T04:49:13.142Z,79.72
2019-04-27T04:50:15.252Z,79.11
2019-04-27T04:51:14.509Z,78.31
2019-04-27T04:52:13.635Z,77.09
2019-04-27T04:53:13.848Z,76.98
2019-04-27T04:54:14.029Z,76.95
2019-04-27T04:55:15.217Z,76.84
2019-04-27T04:56:14.342Z,76.16
2019-04-27T04:57:14.484Z,75.07
2019-04-27T04:58:15.067Z,76.26
2019-04-27T04:59:14.801Z,74.22
2019-04-27T05:00:15.058Z,74.93
2019-04-27T05:01:15.313Z,74.76
2019-04-27T05:02:16.061Z,74.15
2019-04-27T05:03:15.551Z,75.10
2019-04-27T05:04:15.815Z,74.76
2019-04-27T05:05:15.961Z,73.30
2019-04-27T05:06:16.099Z,72.72
2019-04-27T05:07:16.230Z,73.19
2019-04-27T05:08:16.361Z,72.34
2019-04-27T05:09:16.560Z,72.89
2019-04-27T05:10:16.661Z,73.40
2019-04-27T05:11:16.780Z,73.40
2019-04-27T05:12:16.915Z,72.92
2019-04-27T05:13:19.317Z,73.36
2019-04-27T05:14:19.979Z,73.88
2019-04-27T05:15:19.233Z,74.05
2019-04-27T05:16:18.895Z,72.89
2019-04-27T05:17:19.454Z,71.94
2019-04-27T05:18:19.146Z,71.09
2019-04-27T05:19:18.855Z,71.02
2019-04-27T05:20:24.384Z,72.28
2019-04-27T05:21:20.552Z,72.69
2019-04-27T05:22:19.562Z,72.69
2019-04-27T05:23:19.875Z,72.69
2019-04-27T05:24:19.377Z,73.06
2019-04-27T05:25:20.302Z,72.41
2019-04-27T05:26:20.769Z,71.70
2019-04-27T05:27:19.633Z,71.67
2019-04-27T05:28:19.767Z,69.93
2019-04-27T05:29:19.922Z,69.63
2019-04-27T05:30:20.083Z,69.49
2019-04-27T05:31:20.229Z,69.02
2019-04-27T05:32:20.711Z,66.72
2019-04-27T05:33:21.546Z,66.85
2019-04-27T05:34:21.068Z,66.94
2019-04-27T05:35:20.968Z,69.69
2019-04-27T05:36:21.105Z,72.34
2019-04-27T05:37:27.831Z,70.37
2019-04-27T05:38:23.472Z,69.93
2019-04-27T05:39:25.031Z,71.84
2019-04-27T05:40:23.068Z,71.63
2019-04-27T05:41:22.061Z,72.24
2019-04-27T05:42:22.200Z,71.43
2019-04-27T05:43:25.536Z,71.43
2019-04-27T05:44:23.551Z,71.36
2019-04-27T05:45:23.022Z,71.09
2019-04-27T05:46:23.946Z,69.97
2019-04-27T05:47:24.015Z,69.49
2019-04-27T05:48:27.757Z,70.65
2019-04-27T05:49:25.376Z,72.38
2019-04-27T05:50:35.587Z,72.31
2019-04-27T05:51:25.829Z,72.52
2019-04-27T05:52:24.036Z,71.15
2019-04-27T05:53:24.180Z,70.34
2019-04-27T05:54:24.300Z,70.78
2019-04-27T05:55:24.419Z,72.62
2019-04-27T05:56:24.694Z,71.50
2019-04-27T05:57:24.815Z,71.53
2019-04-27T05:58:25.049Z,70.21
2019-04-27T05:59:25.278Z,69.15
2019-04-27T06:00:25.425Z,68.65
2019-04-27T06:01:26.071Z,69.93
2019-04-27T06:02:25.687Z,71.09
2019-04-27T06:03:25.817Z,71.09
2019-04-27T06:04:25.962Z,72.31
2019-04-27T06:05:29.117Z,71.39
2019-04-27T06:06:26.260Z,71.91
2019-04-27T06:07:26.439Z,72.38
2019-04-27T06:08:26.592Z,71.60
2019-04-27T06:09:26.764Z,71.33
2019-04-27T06:10:26.933Z,72.38
2019-04-27T06:11:28.645Z,72.65
2019-04-27T06:12:27.247Z,72.75
2019-04-27T06:13:30.765Z,72.55
2019-04-27T06:14:29.556Z,72.48
2019-04-27T06:15:28.385Z,73.30
2019-04-27T06:16:29.538Z,72.89
2019-04-27T06:17:29.903Z,72.89
2019-04-27T06:18:29.389Z,74.11
2019-04-27T06:19:29.161Z,72.69
2019-04-27T06:20:29.651Z,72.72
2019-04-27T06:21:29.509Z,74.05
2019-04-27T06:22:29.988Z,74.42
2019-04-27T06:23:29.159Z,73.50
2019-04-27T06:24:29.749Z,72.92
2019-04-27T06:25:30.714Z,73.54
2019-04-27T06:26:30.707Z,73.44
2019-04-27T06:27:30.792Z,73.44
2019-04-27T06:28:31.495Z,74.76
2019-04-27T06:29:31.160Z,73.64
2019-04-27T06:30:31.074Z,74.66
2019-04-27T06:31:30.538Z,74.29
2019-04-27T06:32:30.657Z,74.56
2019-04-27T06:33:34.315Z,74.59
2019-04-27T06:34:32.036Z,74.59
2019-04-27T06:35:31.277Z,75.17
2019-04-27T06:36:31.400Z,75.62
2019-04-27T06:37:31.543Z,73.98
2019-04-27T06:38:31.695Z,74.59
2019-04-27T06:39:31.839Z,75.92
2019-04-27T06:40:31.961Z,75.58
2019-04-27T06:41:32.589Z,75.31
2019-04-27T06:42:32.325Z,75.21
2019-04-27T06:43:32.455Z,75.82
2019-04-27T06:44:32.585Z,75.82
2019-04-27T06:45:32.826Z,76.33
2019-04-27T06:46:32.968Z,75.10
2019-04-27T06:47:33.079Z,75.10
2019-04-27T06:48:33.309Z,75.92
2019-04-27T06:49:33.434Z,76.33
2019-04-27T06:50:33.581Z,75.82
2019-04-27T06:51:34.573Z,75.62
2019-04-27T06:52:33.937Z,75.51
2019-04-27T06:53:34.062Z,75.82
2019-04-27T06:54:34.194Z,76.33
2019-04-27T06:55:34.337Z,75.41
2019-04-27T06:56:34.467Z,75.71
2019-04-27T06:57:34.692Z,75.10
2019-04-27T06:58:34.938Z,75.78
2019-04-27T06:59:35.098Z,75.68
2019-04-27T07:00:35.258Z,75.37
2019-04-27T07:01:35.398Z,75.10
2019-04-27T07:02:35.521Z,75.07
2019-04-27T07:03:35.659Z,75.58
2019-04-27T07:04:35.788Z,75.82
2019-04-27T07:05:35.967Z,76.12
2019-04-27T07:06:36.106Z,75.51
2019-04-27T07:07:36.250Z,76.12
2019-04-27T07:08:36.380Z,76.12
2019-04-27T07:09:36.526Z,76.70
2019-04-27T07:10:36.702Z,76.19
2019-04-27T07:11:36.862Z,75.58
2019-04-27T07:12:40.712Z,76.33
2019-04-27T07:13:38.917Z,76.33
2019-04-27T07:14:50.363Z,76.12
2019-04-27T07:15:38.742Z,76.43
2019-04-27T07:16:39.178Z,75.89
2019-04-27T07:17:38.856Z,76.64
2019-04-27T07:18:39.720Z,75.71
2019-04-27T07:19:39.742Z,76.12
2019-04-27T07:20:39.552Z,76.64
2019-04-27T07:21:39.964Z,76.33
2019-04-27T07:22:39.920Z,76.74
2019-04-27T07:23:39.135Z,76.64
2019-04-27T07:24:40.608Z,77.76
2019-04-27T07:25:39.438Z,79.57
2019-04-27T07:26:39.557Z,81.21
2019-04-27T07:27:40.097Z,82.13
2019-04-27T07:28:41.027Z,82.78
2019-04-27T07:29:44.707Z,83.91
2019-04-27T07:30:40.210Z,83.64
2019-04-27T07:31:40.589Z,83.95
2019-04-27T07:32:40.600Z,86.30
2019-04-27T07:33:41.758Z,85.69
2019-04-27T07:34:40.988Z,85.69
2019-04-27T07:35:42.087Z,85.69
2019-04-27T07:36:41.464Z,86.14
2019-04-27T07:37:41.658Z,86.85
2019-04-27T07:38:42.583Z,87.57
2019-04-27T07:39:41.977Z,86.55
2019-04-27T07:40:43.076Z,86.75
2019-04-27T07:41:42.328Z,88.59
2019-04-27T07:42:42.560Z,87.16
2019-04-27T07:43:42.717Z,88.59
2019-04-27T07:44:42.878Z,88.29
2019-04-27T07:45:43.046Z,87.98
2019-04-27T07:46:43.206Z,88.29
2019-04-27T07:47:43.402Z,87.98
2019-04-27T07:48:43.572Z,86.85
2019-04-27T07:49:43.787Z,87.41
2019-04-27T07:50:43.955Z,87.77
2019-04-27T07:51:44.153Z,88.18
2019-04-27T07:52:44.298Z,88.70
2019-04-27T07:53:44.476Z,89.21
2019-04-27T07:54:44.642Z,89.42
2019-04-27T07:55:44.791Z,89.31
2019-04-27T07:56:45.090Z,87.77
2019-04-27T07:57:45.189Z,87.92
2019-04-27T07:58:45.364Z,87.98
2019-04-27T07:59:45.512Z,87.30
2019-04-27T08:00:45.676Z,87.92
2019-04-27T08:01:45.821Z,87.88
2019-04-27T08:02:46.020Z,88.12
2019-04-27T08:03:46.168Z,88.53
2019-04-27T08:04:47.871Z,88.29
2019-04-27T08:05:48.981Z,89.51
2019-04-27T08:06:46.611Z,88.70
2019-04-27T08:07:46.774Z,88.39
2019-04-27T08:08:46.943Z,88.74
2019-04-27T08:09:47.107Z,88.43
2019-04-27T08:10:50.157Z,88.39
2019-04-27T08:11:48.841Z,89.00
2019-04-27T08:12:47.621Z,88.84
2019-04-27T08:13:49.058Z,88.53
2019-04-27T08:14:49.096Z,89.11
2019-04-27T08:15:49.594Z,88.53
2019-04-27T08:16:48.760Z,88.90
2019-04-27T08:17:49.552Z,88.90
2019-04-27T08:18:49.354Z,88.74
2019-04-27T08:19:49.874Z,89.92
2019-04-27T08:20:49.167Z,89.72
2019-04-27T08:21:50.137Z,89.15
2019-04-27T08:22:50.085Z,88.90
2019-04-27T08:23:49.519Z,90.07
2019-04-27T08:24:50.572Z,89.62
2019-04-27T08:25:50.809Z,88.90
2019-04-27T08:26:50.030Z,88.64
2019-04-27T08:27:51.085Z,89.36
2019-04-27T08:28:50.363Z,87.88
2019-04-27T08:29:50.514Z,89.42
2019-04-27T08:30:50.647Z,89.36
2019-04-27T08:31:50.779Z,89.56
2019-04-27T08:32:50.927Z,90.23
2019-04-27T08:33:51.093Z,92.59
2019-04-27T08:34:51.234Z,89.83
2019-04-27T08:35:51.443Z,89.72
2019-04-27T08:36:52.590Z,88.08
2019-04-27T08:37:51.718Z,89.11
2019-04-27T08:38:51.871Z,88.12
2019-04-27T08:39:52.027Z,88.80
2019-04-27T08:40:52.228Z,89.72
2019-04-27T08:41:52.400Z,89.17
2019-04-27T08:42:55.482Z,88.08
2019-04-27T08:43:52.693Z,88.29
2019-04-27T08:44:52.838Z,88.59
2019-04-27T08:45:53.004Z,89.00
2019-04-27T08:46:53.600Z,88.08
2019-04-27T08:47:53.393Z,88.90
2019-04-27T08:48:53.556Z,88.59
2019-04-27T08:49:54.599Z,89.89
2019-04-27T08:50:54.603Z,89.83
2019-04-27T08:51:59.253Z,88.59
2019-04-27T08:52:56.278Z,88.56
2019-04-27T08:53:54.363Z,89.47
2019-04-27T08:54:55.093Z,88.86
2019-04-27T08:55:54.739Z,89.78
2019-04-27T08:56:54.987Z,89.37
2019-04-27T08:57:56.094Z,89.58
2019-04-27T08:58:55.328Z,89.21
2019-04-27T08:59:55.486Z,89.83
2019-04-27T09:00:55.672Z,90.34
2019-04-27T09:01:55.917Z,91.05
2019-04-27T09:02:56.072Z,90.95
2019-04-27T09:03:57.086Z,90.81
2019-04-27T09:04:56.464Z,89.72
2019-04-27T09:05:56.646Z,89.92
2019-04-27T09:06:56.875Z,90.23
2019-04-27T09:07:56.933Z,90.34
2019-04-27T09:08:57.102Z,90.70
2019-04-27T09:09:59.606Z,91.22
2019-04-27T09:10:59.006Z,91.05
2019-04-27T09:11:59.378Z,90.34
2019-04-27T09:12:58.864Z,92.65
2019-04-27T09:13:59.053Z,90.19
2019-04-27T09:14:59.270Z,89.89
2019-04-27T09:16:00.030Z,89.89
2019-04-27T09:17:02.802Z,89.98
2019-04-27T09:17:59.806Z,90.95
2019-04-27T09:18:59.813Z,90.75
2019-04-27T09:20:00.987Z,90.03
2019-04-27T09:21:00.098Z,90.64
2019-04-27T09:22:10.366Z,90.70
2019-04-27T09:23:01.615Z,89.27
2019-04-27T09:24:00.588Z,89.58
2019-04-27T09:25:00.612Z,89.78
2019-04-27T09:26:00.112Z,88.24
2019-04-27T09:27:00.272Z,90.19
2019-04-27T09:28:00.506Z,89.78
2019-04-27T09:29:00.670Z,90.97
2019-04-27T09:30:00.814Z,90.86
2019-04-27T09:31:00.955Z,90.30
2019-04-27T09:32:01.829Z,90.77
2019-04-27T09:33:02.230Z,89.94
2019-04-27T09:34:01.392Z,91.11
2019-04-27T09:35:01.562Z,90.15
2019-04-27T09:36:01.712Z,89.78
2019-04-27T09:37:01.873Z,90.97
2019-04-27T09:38:02.049Z,91.17
2019-04-27T09:39:02.240Z,89.43
2019-04-27T09:40:02.383Z,90.77
2019-04-27T09:41:02.528Z,89.84
2019-04-27T09:42:03.701Z,90.05
2019-04-27T09:43:02.834Z,89.43
2019-04-27T09:44:03.123Z,89.80
2019-04-27T09:45:03.629Z,88.51
2019-04-27T09:46:05.708Z,89.09
2019-04-27T09:47:03.451Z,88.17
2019-04-27T09:48:06.439Z,88.57
2019-04-27T09:49:03.802Z,88.47
2019-04-27T09:50:05.773Z,89.23
2019-04-27T09:51:04.170Z,90.11
2019-04-27T09:52:06.254Z,89.90
2019-04-27T09:53:06.385Z,89.84
2019-04-27T09:54:05.874Z,90.00
2019-04-27T09:55:06.707Z,91.44
2019-04-27T09:56:06.173Z,90.00
2019-04-27T09:57:06.911Z,90.52
2019-04-27T09:58:07.107Z,90.25
2019-04-27T09:59:06.418Z,90.56
2019-04-27T10:00:07.156Z,91.74
2019-04-27T10:01:06.666Z,92.77
2019-04-27T10:02:08.732Z,90.62
2019-04-27T10:03:07.491Z,90.21
2019-04-27T10:04:06.712Z,90.72
2019-04-27T10:05:07.170Z,91.44
2019-04-27T10:06:07.615Z,91.03
2019-04-27T10:07:07.235Z,91.27
2019-04-27T10:08:07.488Z,89.33
2019-04-27T10:09:07.589Z,92.19
2019-04-27T10:10:08.117Z,91.85
2019-04-27T10:11:08.121Z,91.03
2019-04-27T10:12:07.977Z,92.15
2019-04-27T10:13:08.627Z,93.33
2019-04-27T10:14:09.112Z,93.09
2019-04-27T10:15:08.382Z,90.74
2019-04-27T10:16:08.529Z,91.35
2019-04-27T10:17:09.596Z,89.11
2019-04-27T10:18:09.128Z,90.64
2019-04-27T10:19:08.972Z,89.90
2019-04-27T10:20:09.110Z,90.00
2019-04-27T10:21:09.295Z,90.21
2019-04-27T10:22:09.507Z,89.09
2019-04-27T10:23:09.730Z,88.37
2019-04-27T10:24:09.866Z,88.94
2019-04-27T10:25:10.010Z,90.88
2019-04-27T10:26:10.178Z,90.43
2019-04-27T10:27:11.114Z,88.84
2019-04-27T10:28:10.627Z,89.76
2019-04-27T10:29:10.632Z,89.80
2019-04-27T10:30:10.754Z,89.04
2019-04-27T10:31:10.899Z,88.74
2019-04-27T10:32:11.053Z,89.45
2019-04-27T10:33:11.255Z,88.64
2019-04-27T10:34:11.422Z,88.29
2019-04-27T10:35:11.583Z,88.90
2019-04-27T10:36:11.758Z,87.26
2019-04-27T10:37:11.910Z,88.29
2019-04-27T10:38:12.072Z,89.17
2019-04-27T10:39:13.513Z,87.82
2019-04-27T10:40:13.412Z,88.84
2019-04-27T10:41:12.523Z,89.51
2019-04-27T10:42:12.692Z,88.29
2019-04-27T10:43:12.834Z,89.31
2019-04-27T10:44:13.000Z,89.51
2019-04-27T10:45:13.159Z,90.80
2019-04-27T10:46:15.663Z,88.85
2019-04-27T10:47:15.693Z,88.96
2019-04-27T10:48:13.596Z,88.45
2019-04-27T10:49:13.788Z,88.20
2019-04-27T10:50:13.999Z,87.49
2019-04-27T10:51:15.995Z,88.10
2019-04-27T10:52:15.117Z,85.30
2019-04-27T10:53:16.858Z,85.92
2019-04-27T10:54:15.132Z,86.06
2019-04-27T10:55:16.111Z,85.38
2019-04-27T10:56:15.064Z,86.57
2019-04-27T10:57:15.833Z,86.16
2019-04-27T10:58:16.430Z,86.47
2019-04-27T10:59:16.447Z,87.18
2019-04-27T11:00:16.730Z,86.88
2019-04-27T11:01:15.845Z,86.82
2019-04-27T11:02:16.629Z,87.18
2019-04-27T11:03:16.666Z,87.37
2019-04-27T11:04:17.431Z,88.85
2019-04-27T11:05:16.603Z,89.72
2019-04-27T11:06:16.803Z,86.83
2019-04-27T11:07:17.031Z,85.93
2019-04-27T11:08:17.236Z,87.18
2019-04-27T11:09:18.212Z,90.65
2019-04-27T11:10:18.305Z,91.78
2019-04-27T11:11:17.816Z,92.33
2019-04-27T11:12:17.995Z,90.80
2019-04-27T11:13:18.169Z,90.94
2019-04-27T11:14:18.364Z,92.11
2019-04-27T11:15:18.620Z,93.40
2019-04-27T11:16:18.804Z,92.58
2019-04-27T11:17:18.967Z,93.51
2019-04-27T11:18:19.141Z,93.26
2019-04-27T11:19:19.305Z,91.93
2019-04-27T11:20:19.502Z,90.69
2019-04-27T11:21:19.660Z,91.00
2019-04-27T11:22:19.867Z,90.08
2019-04-27T11:23:20.624Z,91.88
2019-04-27T11:24:20.144Z,92.66
2019-04-27T11:25:20.306Z,92.72
2019-04-27T11:26:20.639Z,90.67
2019-04-27T11:27:20.668Z,90.28
2019-04-27T11:28:20.823Z,90.28
2019-04-27T11:29:20.971Z,87.55
2019-04-27T11:30:21.110Z,90.42
2019-04-27T11:31:21.286Z,86.46
2019-04-27T11:32:21.466Z,91.18
2019-04-27T11:33:22.614Z,89.07
2019-04-27T11:34:22.147Z,88.82
2019-04-27T11:35:22.033Z,90.09
2019-04-27T11:36:22.212Z,91.28
2019-04-27T11:37:22.632Z,91.80
2019-04-27T11:38:22.540Z,91.08
2019-04-27T11:39:22.696Z,89.95
2019-04-27T11:40:22.858Z,89.43
2019-04-27T11:41:22.994Z,88.45
2019-04-27T11:42:23.637Z,88.76
2019-04-27T11:43:26.023Z,90.30
2019-04-27T11:44:23.451Z,88.96
2019-04-27T11:45:23.582Z,87.08
2019-04-27T11:46:23.732Z,86.09
2019-04-27T11:47:23.865Z,87.79
2019-04-27T11:48:24.020Z,88.92
2019-04-27T11:49:25.805Z,88.00
2019-04-27T11:50:25.643Z,87.85
2019-04-27T11:51:26.475Z,85.50
2019-04-27T11:52:24.757Z,85.64
2019-04-27T11:53:26.221Z,86.87
2019-04-27T11:54:25.536Z,85.03
2019-04-27T11:55:27.361Z,86.66
2019-04-27T11:56:27.486Z,85.54
2019-04-27T11:57:26.666Z,86.25
2019-04-27T11:58:26.593Z,86.66
2019-04-27T11:59:27.147Z,86.15
2019-04-27T12:00:27.663Z,85.95
2019-04-27T12:01:27.323Z,82.29
2019-04-27T12:02:26.463Z,85.85
2019-04-27T12:03:26.640Z,84.10
2019-04-27T12:04:26.810Z,83.90
2019-04-27T12:05:26.979Z,83.39
2019-04-27T12:06:28.125Z,82.56
2019-04-27T12:07:27.641Z,83.90
2019-04-27T12:08:28.136Z,83.80
2019-04-27T12:09:27.814Z,85.85
2019-04-27T12:10:28.039Z,83.39
2019-04-27T12:11:28.193Z,81.64
2019-04-27T12:12:28.387Z,83.39
2019-04-27T12:13:28.545Z,84.78
2019-04-27T12:14:28.702Z,83.65
2019-04-27T12:15:28.889Z,84.23
2019-04-27T12:16:29.051Z,86.04
2019-04-27T12:17:29.341Z,82.86
2019-04-27T12:18:30.436Z,84.19
2019-04-27T12:19:30.135Z,84.53
2019-04-27T12:20:29.805Z,84.27
2019-04-27T12:21:29.986Z,86.79
2019-04-27T12:22:30.163Z,85.60
2019-04-27T12:23:35.514Z,84.04
2019-04-27T12:24:32.544Z,85.47
2019-04-27T12:25:30.669Z,86.71
2019-04-27T12:26:30.825Z,88.04
2019-04-27T12:27:31.000Z,87.22
2019-04-27T12:28:31.164Z,87.67
2019-04-27T12:29:31.399Z,89.31
2019-04-27T12:30:32.131Z,89.58
2019-04-27T12:31:32.627Z,87.88
2019-04-27T12:32:32.030Z,87.40
2019-04-27T12:33:32.213Z,88.02
2019-04-27T12:34:33.133Z,89.29
2019-04-27T12:35:32.644Z,89.56
2019-04-27T12:36:32.646Z,89.09
2019-04-27T12:37:32.780Z,88.98
2019-04-27T12:38:32.947Z,89.23
2019-04-27T12:39:33.635Z,89.85
2019-04-27T12:40:33.310Z,91.25
2019-04-27T12:41:33.450Z,91.29
2019-04-27T12:42:33.573Z,90.12
2019-04-27T12:43:35.527Z,88.51
2019-04-27T12:44:40.401Z,90.06
2019-04-27T12:45:36.952Z,89.89
2019-04-27T12:46:35.133Z,90.57
2019-04-27T12:47:36.301Z,91.60
2019-04-27T12:48:37.422Z,90.16
2019-04-27T12:49:36.290Z,90.92
2019-04-27T12:50:36.251Z,91.33
2019-04-27T12:51:37.362Z,89.48
2019-04-27T12:52:36.398Z,90.51
2019-04-27T12:53:48.326Z,90.51
2019-04-27T12:54:38.707Z,90.66